Time;durP1;ratioP1;P1;durP2;ratioP2;P2;SDS_P1;SDS_P2;PMS_P1;PMS_P2;Temp;Humidity;BMP_temperature;BMP_pressure;BME280_temperature;BME280_humidity;BME280_pressure;Samples;Min_cycle;Max_cycle;Signal;HPM_P1;HPM_P2
2022/09/12 00:02:20;;;;;;;0.32;0.32;;;12.30;99.90;;;;;;5073180;28;20036;-77
2022/09/12 00:04:46;;;;;;;0.10;0.10;;;12.20;99.90;;;;;;5038748;28;20064;-78
2022/09/12 00:07:12;;;;;;;0.20;0.20;;;12.20;99.90;;;;;;5073218;28;20024;-77
2022/09/12 00:09:38;;;;;;;0.17;0.17;;;12.20;99.90;;;;;;5055407;28;20721;-76
2022/09/12 00:12:04;;;;;;;0.20;0.20;;;12.20;99.90;;;;;;5073072;28;20066;-77
2022/09/12 00:14:31;;;;;;;0.30;0.30;;;12.20;99.90;;;;;;5055395;28;20016;-77
2022/09/12 00:16:58;;;;;;;0.10;0.10;;;12.20;99.90;;;;;;5038518;28;20079;-77
2022/09/12 00:19:28;;;;;;;0.10;0.10;;;12.40;99.90;;;;;;5055205;28;20021;-77
2022/09/12 00:21:54;;;;;;;0.10;0.10;;;12.50;99.90;;;;;;5055018;28;20025;-77
2022/09/12 00:24:20;;;;;;;0.10;0.10;;;12.70;99.90;;;;;;5055027;28;20027;-78
2022/09/12 00:26:47;;;;;;;0.20;0.20;;;12.70;99.90;;;;;;5072810;28;20020;-77
2022/09/12 00:29:20;;;;;;;0.10;0.10;;;12.70;99.90;;;;;;5072689;28;20036;-77
2022/09/12 00:31:47;;;;;;;0.57;0.57;;;12.80;99.90;;;;;;5054695;28;20529;-77
2022/09/12 00:34:13;;;;;;;0.10;0.10;;;12.70;99.90;;;;;;5054854;28;20032;-78
2022/09/12 00:36:39;;;;;;;0.20;0.20;;;12.70;99.90;;;;;;5054177;28;20392;-77
2022/09/12 00:39:06;;;;;;;1.08;0.40;;;12.70;99.90;;;;;;5072863;28;20491;-77
2022/09/12 00:41:35;;;;;;;0.20;0.20;;;12.50;99.90;;;;;;5072643;28;20099;-77
2022/09/12 00:44:23;;;;;;;0.65;0.57;;;12.30;99.90;;;;;;5072495;28;20520;-77
2022/09/12 00:47:07;;;;;;;0.10;0.10;;;12.10;99.90;;;;;;5054352;28;20028;-77
2022/09/12 00:49:57;;;;;;;0.30;0.30;;;12.10;99.90;;;;;;5054485;28;20024;-79
2022/09/12 00:52:54;;;;;;;0.52;0.52;;;12.00;99.90;;;;;;5054572;28;20024;-77
2022/09/12 00:55:22;;;;;;;0.20;0.20;;;12.00;99.90;;;;;;5050462;28;20037;-77
2022/09/12 00:57:56;;;;;;;0.28;0.28;;;12.10;99.90;;;;;;5054382;28;20104;-77
2022/09/12 01:00:24;;;;;;;0.20;0.20;;;11.90;99.90;;;;;;5072260;28;20016;-76
2022/09/12 01:02:56;;;;;;;0.20;0.20;;;11.90;99.90;;;;;;5054373;28;20033;-77
2022/09/12 01:05:23;;;;;;;0.10;0.10;;;11.80;99.90;;;;;;5054213;28;20028;-77
2022/09/12 01:07:51;;;;;;;0.20;0.20;;;11.90;99.90;;;;;;5054333;28;20503;-77
2022/09/12 01:10:18;;;;;;;0.43;0.43;;;11.80;99.90;;;;;;5054350;28;20549;-77
2022/09/12 01:12:44;;;;;;;0.20;0.20;;;11.80;99.90;;;;;;5071977;28;20020;-77
2022/09/12 01:15:10;;;;;;;0.30;0.30;;;11.70;99.90;;;;;;5071950;28;20036;-77
2022/09/12 01:17:49;;;;;;;0.20;0.20;;;11.70;99.90;;;;;;5054335;28;20021;-77
2022/09/12 01:20:38;;;;;;;0.40;0.40;;;11.60;99.90;;;;;;5054270;28;20032;-77
2022/09/12 01:23:10;;;;;;;1.02;0.60;;;11.60;99.90;;;;;;5037369;28;20020;-77
2022/09/12 01:26:01;;;;;;;0.10;0.10;;;11.50;99.90;;;;;;5071819;28;20050;-77
2022/09/12 01:28:39;;;;;;;0.10;0.10;;;11.50;99.90;;;;;;5071941;28;20062;-77
2022/09/12 01:31:15;;;;;;;0.30;0.30;;;11.60;99.90;;;;;;5054119;28;20040;-77
2022/09/12 01:34:03;;;;;;;0.28;0.28;;;11.60;99.90;;;;;;5071689;28;20021;-77
2022/09/12 01:36:35;;;;;;;0.20;0.20;;;11.50;99.90;;;;;;5053779;28;20108;-77
2022/09/12 01:39:03;;;;;;;;;;;11.50;99.90;;;;;;5072427;28;20020;-77
2022/09/12 01:41:52;;;;;;;0.10;0.10;;;11.50;99.90;;;;;;5053920;28;19911;-77
2022/09/12 01:44:40;;;;;;;0.10;0.10;;;11.60;99.90;;;;;;5071757;28;20024;-77
2022/09/12 01:47:10;;;;;;;0.10;0.10;;;11.60;99.90;;;;;;5053817;28;20025;-77
2022/09/12 01:49:55;;;;;;;0.30;0.30;;;11.70;99.90;;;;;;5074754;28;20070;-77
2022/09/12 01:52:48;;;;;;;0.20;0.20;;;11.80;99.90;;;;;;5075659;28;20105;-77
2022/09/12 01:55:24;;;;;;;0.10;0.10;;;11.70;99.90;;;;;;5047806;28;20033;-77
2022/09/12 01:57:59;;;;;;;0.00;0.00;;;11.70;99.90;;;;;;5075806;28;20061;-77
2022/09/12 02:00:25;;;;;;;0.10;0.10;;;11.80;99.90;;;;;;5057774;28;20418;-77
2022/09/12 02:03:07;;;;;;;0.30;0.30;;;11.70;99.90;;;;;;5075893;28;20035;-77
2022/09/12 02:05:45;;;;;;;0.10;0.10;;;11.70;99.90;;;;;;5075575;28;20078;-77
2022/09/12 02:08:16;;;;;;;0.40;0.40;;;11.70;99.90;;;;;;5057695;28;20078;-77
2022/09/12 02:11:08;;;;;;;0.10;0.10;;;11.50;99.90;;;;;;5040971;28;20025;-77
2022/09/12 02:13:50;;;;;;;0.25;0.25;;;11.50;99.90;;;;;;5040905;28;20124;-77
2022/09/12 02:16:38;;;;;;;0.10;0.10;;;11.50;99.90;;;;;;5075332;28;20365;-77
2022/09/12 02:19:15;;;;;;;0.10;0.10;;;11.50;99.90;;;;;;5057367;28;20111;-76
2022/09/12 02:21:52;;;;;;;0.45;0.28;;;11.40;99.90;;;;;;5057540;28;20432;-77
2022/09/12 02:24:20;;;;;;;0.03;0.03;;;11.40;99.90;;;;;;5075702;28;20434;-77
2022/09/12 02:26:56;;;;;;;0.10;0.10;;;11.30;99.90;;;;;;5057392;28;20047;-77
2022/09/12 02:29:22;;;;;;;0.30;0.30;;;11.40;99.90;;;;;;5053968;28;20033;-77
2022/09/12 02:31:59;;;;;;;0.10;0.10;;;11.70;99.90;;;;;;5053748;28;20082;-76
2022/09/12 02:34:31;;;;;;;0.10;0.10;;;11.90;99.90;;;;;;5067154;28;20024;-78
2022/09/12 02:37:11;;;;;;;0.10;0.10;;;11.90;99.90;;;;;;5057044;28;20096;-77
2022/09/12 02:39:37;;;;;;;0.10;0.10;;;11.90;99.90;;;;;;5056988;28;20032;-77
2022/09/12 02:42:04;;;;;;;0.10;0.10;;;11.70;99.90;;;;;;5074738;28;20021;-77
2022/09/12 02:44:32;;;;;;;0.10;0.10;;;11.70;99.90;;;;;;5074889;28;20017;-76
2022/09/12 02:47:07;;;;;;;0.17;0.17;;;11.90;99.90;;;;;;5056713;28;20027;-77
2022/09/12 02:49:33;;;;;;;0.10;0.10;;;11.90;99.90;;;;;;5057007;28;20051;-76
2022/09/12 02:52:01;;;;;;;0.20;0.20;;;11.90;99.90;;;;;;5056425;28;20060;-76
2022/09/12 02:54:27;;;;;;;0.10;0.10;;;12.00;99.90;;;;;;5056864;28;20130;-77
2022/09/12 02:56:53;;;;;;;0.08;0.08;;;12.10;99.90;;;;;;5056720;28;20024;-76
2022/09/12 02:59:21;;;;;;;0.20;0.20;;;12.20;99.90;;;;;;5056163;28;20029;-77
2022/09/12 03:02:02;;;;;;;0.10;0.10;;;12.30;99.90;;;;;;5074517;28;20353;-77
2022/09/12 03:04:52;;;;;;;0.10;0.10;;;12.50;99.90;;;;;;5074470;28;20103;-77
2022/09/12 03:07:56;;;;;;;0.30;0.30;;;12.10;99.90;;;;;;5074493;28;20029;-76
2022/09/12 03:10:37;;;;;;;0.10;0.10;;;12.00;99.90;;;;;;5056587;28;20074;-77
2022/09/12 03:13:24;;;;;;;0.20;0.20;;;11.90;99.90;;;;;;5056311;28;20027;-76
2022/09/12 03:16:03;;;;;;;0.35;0.35;;;11.70;99.90;;;;;;5056228;28;20031;-76
2022/09/12 03:19:02;;;;;;;0.38;0.30;;;11.60;99.90;;;;;;5056266;28;20082;-76
2022/09/12 03:21:53;;;;;;;0.15;0.15;;;11.40;99.90;;;;;;5012963;28;20391;-76
2022/09/12 03:24:36;;;;;;;0.10;0.10;;;11.30;99.90;;;;;;5064962;28;20036;-76
2022/09/12 03:27:09;;;;;;;0.22;0.22;;;11.40;99.90;;;;;;5074037;28;20085;-77
2022/09/12 03:29:37;;;;;;;0.10;0.10;;;11.50;99.90;;;;;;5073813;28;20395;-77
2022/09/12 03:32:02;;;;;;;0.10;0.10;;;11.50;99.90;;;;;;5055893;28;20031;-77
2022/09/12 03:34:28;;;;;;;0.10;0.10;;;11.70;99.90;;;;;;5039427;28;20028;-77
2022/09/12 03:36:55;;;;;;;0.10;0.10;;;11.70;99.90;;;;;;5073777;28;20025;-78
2022/09/12 03:39:23;;;;;;;0.10;0.10;;;11.70;99.90;;;;;;5074217;28;20021;-77
2022/09/12 03:41:50;;;;;;;2.58;0.30;;;11.60;99.90;;;;;;5073738;28;20017;-77
2022/09/12 03:44:17;;;;;;;0.13;0.13;;;11.50;99.90;;;;;;5073571;28;20054;-76
2022/09/12 03:46:43;;;;;;;0.13;0.13;;;11.30;99.90;;;;;;5073558;28;20103;-77
2022/09/12 03:49:09;;;;;;;0.20;0.20;;;11.40;99.90;;;;;;5073705;28;20036;-77
2022/09/12 03:51:36;;;;;;;0.17;0.17;;;11.20;99.90;;;;;;5055642;28;20029;-76
2022/09/12 03:54:02;;;;;;;0.10;0.10;;;11.30;99.90;;;;;;5073392;28;20025;-76
2022/09/12 03:56:28;;;;;;;0.17;0.17;;;11.30;99.90;;;;;;5038854;28;20046;-76
2022/09/12 03:58:54;;;;;;;0.30;0.30;;;11.20;99.90;;;;;;5055631;28;20070;-76
2022/09/12 04:01:20;;;;;;;0.20;0.20;;;11.10;99.90;;;;;;5073606;28;20059;-76
2022/09/12 04:03:48;;;;;;;0.10;0.10;;;11.10;99.90;;;;;;5073393;28;20035;-76
2022/09/12 04:06:17;;;;;;;0.10;0.10;;;11.20;99.90;;;;;;5073149;28;20036;-76
2022/09/12 04:08:46;;;;;;;0.10;0.10;;;11.20;99.90;;;;;;5073194;28;20024;-77
2022/09/12 04:11:14;;;;;;;0.35;0.35;;;11.10;99.90;;;;;;5072379;28;20032;-77
2022/09/12 04:13:41;;;;;;;0.20;0.20;;;11.00;99.90;;;;;;5072928;28;20032;-76
2022/09/12 04:16:08;;;;;;;0.10;0.10;;;11.10;99.90;;;;;;5055124;28;20027;-76
2022/09/12 04:18:35;;;;;;;0.10;0.10;;;11.10;99.90;;;;;;5038574;28;20027;-76
2022/09/12 04:21:09;;;;;;;1.00;0.47;;;11.20;99.90;;;;;;5073533;28;20096;-76
2022/09/12 04:23:35;;;;;;;0.20;0.20;;;11.20;99.90;;;;;;5054900;28;20035;-76
2022/09/12 04:26:02;;;;;;;0.10;0.10;;;11.20;99.90;;;;;;5047541;28;20111;-76
2022/09/12 04:28:28;;;;;;;0.10;0.10;;;11.20;99.90;;;;;;5035091;28;20489;-76
2022/09/12 04:30:55;;;;;;;0.10;0.10;;;11.40;99.90;;;;;;5052791;28;20029;-76
2022/09/12 04:33:21;;;;;;;3.10;1.17;;;11.50;99.90;;;;;;5034702;28;20111;-77
2022/09/12 04:35:47;;;;;;;0.10;0.10;;;11.60;99.90;;;;;;5034582;28;20120;-77
2022/09/12 04:38:13;;;;;;;0.17;0.17;;;11.50;99.90;;;;;;5035029;28;20044;-76
2022/09/12 04:40:39;;;;;;;0.73;0.73;;;11.60;99.90;;;;;;5034820;28;20059;-76
2022/09/12 04:43:05;;;;;;;0.10;0.10;;;11.60;99.90;;;;;;5040873;28;20469;-76
2022/09/12 04:45:32;;;;;;;0.20;0.20;;;11.50;99.90;;;;;;5037800;28;20032;-77
2022/09/12 04:47:58;;;;;;;0.10;0.10;;;11.50;99.90;;;;;;5058062;28;20508;-77
2022/09/12 04:50:24;;;;;;;0.82;0.82;;;11.50;99.90;;;;;;5054367;28;20081;-77
2022/09/12 04:52:52;;;;;;;0.20;0.20;;;11.70;99.90;;;;;;5037618;28;20032;-77
2022/09/12 04:55:18;;;;;;;0.20;0.20;;;11.80;99.90;;;;;;5027283;28;20056;-77
2022/09/12 04:57:44;;;;;;;0.10;0.10;;;11.60;99.90;;;;;;5034569;28;20029;-77
2022/09/12 05:00:14;;;;;;;1.35;0.57;;;11.60;99.90;;;;;;5052259;28;20108;-76
2022/09/12 05:02:40;;;;;;;0.40;0.40;;;11.50;99.90;;;;;;5035093;28;20083;-76
2022/09/12 05:05:06;;;;;;;0.20;0.20;;;11.30;99.90;;;;;;5054046;28;20028;-77
2022/09/12 05:07:32;;;;;;;0.20;0.20;;;11.20;99.90;;;;;;5037617;28;20029;-76
2022/09/12 05:09:59;;;;;;;4.55;0.47;;;11.30;99.90;;;;;;5071977;28;20035;-78
2022/09/12 05:12:26;;;;;;;0.20;0.20;;;11.30;99.90;;;;;;5069393;28;20016;-76
2022/09/12 05:14:51;;;;;;;0.20;0.20;;;11.20;99.90;;;;;;5017922;28;20545;-76
2022/09/12 05:17:17;;;;;;;0.20;0.20;;;11.10;99.90;;;;;;5052201;28;20059;-75
2022/09/12 05:19:43;;;;;;;0.80;0.40;;;11.10;99.90;;;;;;5052730;28;20059;-76
2022/09/12 05:22:09;;;;;;;0.10;0.10;;;11.00;99.90;;;;;;5053405;28;20499;-77
2022/09/12 05:24:41;;;;;;;2.45;2.28;;;10.90;99.90;;;;;;5070377;28;20017;-77
2022/09/12 05:27:07;;;;;;;0.20;0.20;;;10.90;99.90;;;;;;5037131;28;20384;-76
2022/09/12 05:29:33;;;;;;;0.15;0.15;;;10.90;99.90;;;;;;5053365;28;20109;-76
2022/09/12 05:31:59;;;;;;;0.10;0.10;;;11.00;99.90;;;;;;5070272;28;20097;-76
2022/09/12 05:34:26;;;;;;;0.20;0.20;;;11.00;99.90;;;;;;5047394;28;20028;-76
2022/09/12 05:36:52;;;;;;;0.10;0.10;;;11.10;99.90;;;;;;5052248;28;20060;-76
2022/09/12 05:39:18;;;;;;;0.10;0.10;;;11.10;99.90;;;;;;5053521;28;20101;-76
2022/09/12 05:41:44;;;;;;;1.05;0.65;;;11.30;99.90;;;;;;5071329;28;20020;-76
2022/09/12 05:44:12;;;;;;;0.57;0.57;;;11.40;99.90;;;;;;5053174;28;20067;-79
2022/09/12 05:46:44;;;;;;;0.10;0.10;;;11.40;99.90;;;;;;5053860;28;20025;-77
2022/09/12 05:49:12;;;;;;;0.10;0.10;;;11.50;99.90;;;;;;5071806;28;20025;-76
2022/09/12 05:51:40;;;;;;;0.30;0.30;;;11.60;99.90;;;;;;5071857;28;20029;-77
2022/09/12 05:54:08;;;;;;;0.10;0.10;;;11.80;99.90;;;;;;5071705;28;20025;-76
2022/09/12 05:56:39;;;;;;;0.35;0.35;;;11.90;99.90;;;;;;5071634;28;20021;-75
2022/09/12 05:59:10;;;;;;;0.22;0.22;;;12.00;99.90;;;;;;5071792;28;20024;-77
2022/09/12 06:01:36;;;;;;;;;;;12.00;99.90;;;;;;5072140;28;20028;-76
2022/09/12 06:04:05;;;;;;;0.20;0.20;;;12.00;99.90;;;;;;5053516;28;19911;-77
2022/09/12 06:06:33;;;;;;;0.10;0.10;;;12.00;99.90;;;;;;5053905;28;20020;-75
2022/09/12 06:09:01;;;;;;;0.10;0.10;;;12.00;99.90;;;;;;5070060;28;20040;-77
2022/09/12 06:11:29;;;;;;;0.20;0.20;;;12.10;99.90;;;;;;5062202;28;20044;-79
2022/09/12 06:13:57;;;;;;;0.17;0.17;;;12.10;99.90;;;;;;5040656;28;20017;-78
2022/09/12 06:16:28;;;;;;;0.10;0.10;;;12.20;99.90;;;;;;5053251;28;20020;-77
2022/09/12 06:18:56;;;;;;;0.13;0.13;;;12.30;99.90;;;;;;5071481;28;20055;-77
2022/09/12 06:21:24;;;;;;;0.10;0.10;;;12.40;99.90;;;;;;5053426;28;20021;-78
2022/09/12 06:23:50;;;;;;;0.20;0.20;;;12.50;99.90;;;;;;5053236;28;20025;-79
2022/09/12 06:26:20;;;;;;;0.10;0.10;;;12.70;99.90;;;;;;5053483;28;20365;-78
2022/09/12 06:28:46;;;;;;;0.10;0.10;;;12.80;99.90;;;;;;5052991;28;20036;-77
2022/09/12 06:31:15;;;;;;;0.10;0.10;;;13.00;99.90;;;;;;5053493;28;20528;-77
2022/09/12 06:33:44;;;;;;;0.10;0.10;;;13.10;99.90;;;;;;5036508;28;20056;-77
2022/09/12 06:36:16;;;;;;;0.65;0.52;;;13.30;99.90;;;;;;5056593;28;20032;-76
2022/09/12 06:38:44;;;;;;;0.35;0.35;;;13.30;99.90;;;;;;5056841;28;20108;-77
2022/09/12 06:41:12;;;;;;;0.10;0.10;;;13.30;99.90;;;;;;5040223;28;20413;-77
2022/09/12 06:43:39;;;;;;;0.10;0.10;;;13.30;99.90;;;;;;5034318;28;20033;-79
2022/09/12 06:46:06;;;;;;;0.10;0.10;;;13.30;99.90;;;;;;5054656;28;20477;-77
2022/09/12 06:48:32;;;;;;;0.10;0.10;;;13.40;99.90;;;;;;5020285;28;20032;-77
2022/09/12 06:51:01;;;;;;;0.03;0.03;;;13.50;99.90;;;;;;5036805;28;20029;-79
2022/09/12 06:53:28;;;;;;;0.10;0.10;;;13.60;99.90;;;;;;5054503;28;20427;-78
2022/09/12 06:55:56;;;;;;;0.20;0.20;;;13.70;99.90;;;;;;5054475;28;20024;-78
2022/09/12 06:58:23;;;;;;;0.10;0.10;;;13.70;99.90;;;;;;5054543;28;20025;-80
2022/09/12 07:00:49;;;;;;;0.10;0.10;;;13.90;99.90;;;;;;5054567;28;20491;-77
2022/09/12 07:03:14;;;;;;;0.10;0.10;;;14.00;99.90;;;;;;5054370;28;20078;-78
2022/09/12 07:05:40;;;;;;;0.10;0.10;;;14.20;99.90;;;;;;5036436;28;20484;-79
2022/09/12 07:08:06;;;;;;;0.10;0.10;;;14.20;99.90;;;;;;5054459;28;20087;-78
2022/09/12 07:10:32;;;;;;;0.10;0.10;;;14.20;99.90;;;;;;5054451;28;20071;-76
2022/09/12 07:12:58;;;;;;;0.10;0.10;;;14.30;99.90;;;;;;5019777;28;20021;-76
2022/09/12 07:15:23;;;;;;;0.10;0.10;;;14.40;99.90;;;;;;5036828;28;20052;-76
2022/09/12 07:17:49;;;;;;;1.55;0.40;;;14.50;99.90;;;;;;5060165;28;20106;-75
2022/09/12 07:20:15;;;;;;;0.10;0.10;;;14.60;99.90;;;;;;5045367;28;20021;-77
2022/09/12 07:22:41;;;;;;;0.10;0.10;;;14.80;99.90;;;;;;5040829;28;20024;-76
2022/09/12 07:25:07;;;;;;;0.10;0.10;;;14.80;99.90;;;;;;5040264;28;20025;-79
2022/09/12 07:27:33;;;;;;;0.10;0.10;;;14.80;99.90;;;;;;5035424;28;20028;-77
2022/09/12 07:29:59;;;;;;;0.10;0.10;;;15.00;99.90;;;;;;5034208;28;20737;-77
2022/09/12 07:32:26;;;;;;;0.30;0.30;;;15.00;99.90;;;;;;5035504;28;20028;-77
2022/09/12 07:34:52;;;;;;;0.10;0.10;;;15.10;99.90;;;;;;5053082;28;20013;-77
2022/09/12 07:37:17;;;;;;;0.10;0.10;;;15.10;99.90;;;;;;5057987;28;20400;-77
2022/09/12 07:39:43;;;;;;;0.10;0.10;;;15.20;99.90;;;;;;5073847;28;20020;-78
2022/09/12 07:42:10;;;;;;;0.10;0.10;;;15.20;99.90;;;;;;5056004;28;20012;-77
2022/09/12 07:44:36;;;;;;;0.10;0.10;;;15.30;99.90;;;;;;5055827;28;20021;-77
2022/09/12 07:47:01;;;;;;;0.10;0.10;;;15.30;99.90;;;;;;5055347;28;20029;-77
2022/09/12 07:49:27;;;;;;;0.10;0.10;;;15.40;99.90;;;;;;5073643;28;20361;-78
2022/09/12 07:51:53;;;;;;;0.10;0.10;;;15.50;99.90;;;;;;5073553;28;20361;-77
2022/09/12 07:54:19;;;;;;;0.10;0.10;;;15.60;99.90;;;;;;5055598;28;20025;-79
2022/09/12 07:56:45;;;;;;;0.08;0.08;;;15.60;99.90;;;;;;5056226;28;20081;-77
2022/09/12 07:59:11;;;;;;;0.10;0.10;;;15.70;99.90;;;;;;5065123;28;20381;-78
2022/09/12 08:01:38;;;;;;;0.20;0.20;;;15.70;99.90;;;;;;5035604;28;20021;-77
2022/09/12 08:04:04;;;;;;;0.10;0.10;;;15.70;99.90;;;;;;5035639;28;20118;-78
2022/09/12 08:06:32;;;;;;;0.10;0.10;;;15.70;99.90;;;;;;5035153;28;20500;-78
2022/09/12 08:08:58;;;;;;;0.10;0.10;;;15.90;99.90;;;;;;5035450;28;20032;-78
2022/09/12 08:11:27;;;;;;;0.10;0.10;;;16.00;99.90;;;;;;5035724;28;20120;-78
2022/09/12 08:13:54;;;;;;;0.10;0.10;;;16.10;99.90;;;;;;5052647;28;20625;-77
2022/09/12 08:16:24;;;;;;;0.10;0.10;;;16.20;99.90;;;;;;5033403;28;20388;-77
2022/09/12 08:18:50;;;;;;;0.10;0.10;;;16.30;99.90;;;;;;5033920;28;20028;-77
2022/09/12 08:21:21;;;;;;;0.10;0.10;;;16.40;99.90;;;;;;5034115;28;20028;-79
2022/09/12 08:23:51;;;;;;;0.15;0.15;;;16.60;99.90;;;;;;5018669;28;20029;-78
2022/09/12 08:26:16;;;;;;;0.10;0.10;;;16.80;99.90;;;;;;5051916;28;20025;-78
2022/09/12 08:28:44;;;;;;;0.40;0.40;;;17.00;99.90;;;;;;5052929;28;20086;-78
2022/09/12 08:31:13;;;;;;;0.40;0.40;;;17.20;99.90;;;;;;5052781;28;20086;-78
2022/09/12 08:33:39;;;;;;;0.10;0.10;;;17.40;99.90;;;;;;5052704;28;20067;-77
2022/09/12 08:36:16;;;;;;;0.10;0.10;;;17.40;99.90;;;;;;5034617;28;20108;-78
2022/09/12 08:38:44;;;;;;;0.00;0.00;;;17.70;99.90;;;;;;5035116;28;20116;-78
2022/09/12 08:41:16;;;;;;;0.10;0.10;;;18.00;99.90;;;;;;5019430;28;20108;-78
2022/09/12 08:43:48;;;;;;;;;;;18.20;99.90;;;;;;5018652;28;20488;-77
2022/09/12 08:46:44;;;;;;;0.03;0.03;;;18.40;99.90;;;;;;5044815;28;19904;-79
2022/09/12 08:49:14;;;;;;;0.00;0.00;;;18.60;99.90;;;;;;5012803;28;20060;-77
2022/09/12 08:51:40;;;;;;;0.10;0.10;;;18.70;99.90;;;;;;5072541;28;20027;-78
2022/09/12 08:54:25;;;;;;;0.00;0.00;;;18.90;99.90;;;;;;5072078;28;20047;-77
2022/09/12 08:56:59;;;;;;;0.20;0.10;;;19.10;99.90;;;;;;5071963;28;20017;-78
2022/09/12 08:59:24;;;;;;;0.15;0.15;;;19.10;99.90;;;;;;5054400;28;20437;-78
2022/09/12 09:01:57;;;;;;;0.10;0.10;;;19.30;99.90;;;;;;5054927;28;20012;-76
2022/09/12 09:04:50;;;;;;;0.10;0.10;;;19.50;99.90;;;;;;5071425;28;20031;-79
2022/09/12 09:07:31;;;;;;;0.05;0.05;;;19.80;99.90;;;;;;5070615;28;20031;-78
2022/09/12 09:10:34;;;;;;;0.03;0.03;;;20.00;99.90;;;;;;5070258;28;20035;-78
2022/09/12 09:16:31;;;;;;;0.03;0.03;;;20.90;98.80;;;;;;5052916;28;20024;-77
2022/09/12 09:19:03;;;;;;;0.20;0.20;;;21.10;97.90;;;;;;5071180;28;20017;-78
2022/09/12 09:21:49;;;;;;;0.00;0.00;;;21.30;98.40;;;;;;5053995;28;20450;-78
2022/09/12 09:24:20;;;;;;;0.10;0.10;;;21.60;95.60;;;;;;5072013;28;20087;-77
2022/09/12 09:26:52;;;;;;;;;;;21.70;95.20;;;;;;5072227;28;20483;-78
2022/09/12 09:29:21;;;;;;;0.00;0.00;;;22.10;93.90;;;;;;5071927;28;19916;-78
2022/09/12 09:31:51;;;;;;;0.00;0.00;;;22.40;92.10;;;;;;5071883;28;20035;-79
2022/09/12 09:34:28;;;;;;;0.00;0.00;;;22.70;90.60;;;;;;5054074;28;20403;-76
2022/09/12 09:37:20;;;;;;;0.00;0.00;;;22.90;85.90;;;;;;5071752;28;20023;-77
2022/09/12 09:40:26;;;;;;;0.00;0.00;;;23.20;84.80;;;;;;5071895;28;20017;-78
2022/09/12 09:42:59;;;;;;;0.00;0.00;;;23.40;84.90;;;;;;5040908;28;20054;-77
2022/09/12 09:45:28;;;;;;;0.00;0.00;;;23.70;79.80;;;;;;5036669;28;20029;-76
2022/09/12 09:48:00;;;;;;;0.00;0.00;;;24.00;79.30;;;;;;5071465;28;20074;-77
2022/09/12 09:50:27;;;;;;;0.08;0.08;;;24.10;76.60;;;;;;5071522;28;20114;-77
2022/09/12 09:52:56;;;;;;;0.00;0.00;;;24.30;75.90;;;;;;5053690;28;20028;-75
2022/09/12 09:55:26;;;;;;;0.00;0.00;;;24.50;76.20;;;;;;5053565;28;20497;-78
2022/09/12 09:57:52;;;;;;;0.07;0.07;;;24.70;74.20;;;;;;5071778;28;20023;-78
2022/09/12 10:00:33;;;;;;;0.00;0.00;;;25.10;71.70;;;;;;5071453;28;20091;-78
2022/09/12 10:03:06;;;;;;;0.00;0.00;;;25.00;72.30;;;;;;5053293;28;20035;-77
2022/09/12 10:05:35;;;;;;;0.00;0.00;;;25.10;71.80;;;;;;5053311;28;20056;-78
2022/09/12 10:08:03;;;;;;;0.00;0.00;;;25.20;72.60;;;;;;5037076;28;20182;-78
2022/09/12 10:10:28;;;;;;;0.10;0.10;;;25.60;68.20;;;;;;5052559;28;20021;-78
2022/09/12 10:13:19;;;;;;;0.00;0.00;;;25.30;64.20;;;;;;5075394;28;20472;-78
2022/09/12 10:16:04;;;;;;;0.00;0.00;;;25.40;64.80;;;;;;5040801;28;20068;-78
2022/09/12 10:18:50;;;;;;;0.00;0.00;;;25.70;63.20;;;;;;5058812;28;20030;-77
2022/09/12 10:21:38;;;;;;;0.20;0.20;;;25.90;63.80;;;;;;5058858;28;20133;-77
2022/09/12 10:24:25;;;;;;;0.25;0.10;;;25.60;63.20;;;;;;5037458;28;20061;-75
2022/09/12 10:26:57;;;;;;;0.52;0.52;;;25.50;61.90;;;;;;5039842;28;20017;-75
2022/09/12 10:29:28;;;;;;;;;;;25.30;61.00;;;;;;5057803;28;20574;-79
2022/09/12 10:31:57;;;;;;;0.00;0.00;;;25.60;59.60;;;;;;5040648;28;19905;-76
2022/09/12 10:34:31;;;;;;;0.00;0.00;;;25.70;62.30;;;;;;5074937;28;20024;-77
2022/09/12 10:37:06;;;;;;;0.00;0.00;;;26.10;61.20;;;;;;5057035;28;20055;-79
2022/09/12 10:39:33;;;;;;;0.03;0.03;;;26.70;62.00;;;;;;5075141;28;20357;-76
2022/09/12 10:42:00;;;;;;;0.00;0.00;;;27.00;58.90;;;;;;5057203;28;20021;-78
2022/09/12 10:44:29;;;;;;;0.00;0.00;;;26.20;61.00;;;;;;5033151;28;20036;-76
2022/09/12 10:46:57;;;;;;;0.00;0.00;;;26.20;57.90;;;;;;5036854;28;20021;-78
2022/09/12 10:49:27;;;;;;;0.15;0.15;;;25.90;59.30;;;;;;5054775;28;20049;-77
2022/09/12 10:51:55;;;;;;;0.10;0.10;;;26.30;59.60;;;;;;5054317;28;20484;-78
2022/09/12 10:54:24;;;;;;;0.10;0.10;;;26.40;58.50;;;;;;5053007;28;20033;-80
2022/09/12 10:57:29;;;;;;;0.00;0.00;;;26.80;55.60;;;;;;5053549;28;20063;-78
2022/09/12 11:00:16;;;;;;;0.82;0.82;;;27.00;58.60;;;;;;5054342;28;20477;-80
2022/09/12 11:03:05;;;;;;;0.00;0.00;;;27.40;58.80;;;;;;5036636;28;20037;-78
2022/09/12 11:05:37;;;;;;;0.00;0.00;;;27.70;57.50;;;;;;5019813;28;20033;-78
2022/09/12 11:08:32;;;;;;;0.00;0.00;;;27.30;59.20;;;;;;5036759;28;20112;-77
2022/09/12 11:11:29;;;;;;;0.10;0.10;;;27.10;57.40;;;;;;5020233;28;20106;-78
2022/09/12 11:14:02;;;;;;;0.10;0.10;;;26.90;60.60;;;;;;5054271;28;20469;-77
2022/09/12 11:16:37;;;;;;;0.00;0.00;;;27.40;58.10;;;;;;5054121;28;20400;-77
2022/09/12 11:19:58;;;;;;;0.00;0.00;;;27.40;58.90;;;;;;5054088;28;20154;-76
2022/09/12 11:22:41;;;;;;;0.00;0.00;;;27.50;58.20;;;;;;4921797;29;20027;-79
2022/09/12 11:25:30;;;;;;;12.35;0.82;;;27.20;57.70;;;;;;5027888;28;20043;-77
2022/09/12 11:30:28;;;;;;;0.00;0.00;;;27.20;58.80;;;;;;5074133;28;20052;-73
2022/09/12 11:32:58;;;;;;;0.00;0.00;;;27.30;57.90;;;;;;5041005;28;20035;-73
2022/09/12 11:35:28;;;;;;;0.20;0.20;;;27.10;57.60;;;;;;5057491;28;20020;-73
2022/09/12 11:38:03;;;;;;;0.00;0.00;;;27.40;56.40;;;;;;5075431;28;20028;-73
2022/09/12 11:40:58;;;;;;;0.00;0.00;;;27.30;56.50;;;;;;5037461;28;20025;-72
2022/09/12 11:43:47;;;;;;;0.00;0.00;;;27.10;56.10;;;;;;5054347;28;20124;-73
2022/09/12 11:46:36;;;;;;;0.10;0.10;;;27.00;56.90;;;;;;5075129;28;20020;-73
2022/09/12 11:49:17;;;;;;;0.08;0.08;;;26.50;54.10;;;;;;5075720;28;20036;-73
2022/09/12 11:51:52;;;;;;;0.00;0.00;;;26.50;55.40;;;;;;5057911;28;20050;-73
2022/09/12 11:54:30;;;;;;;0.45;0.20;;;26.50;56.30;;;;;;5075624;28;20033;-73
2022/09/12 11:57:22;;;;;;;0.00;0.00;;;26.70;57.00;;;;;;5075641;28;20031;-73
2022/09/12 12:00:13;;;;;;;0.00;0.00;;;27.20;55.20;;;;;;5075581;28;20016;-73
2022/09/12 12:02:57;;;;;;;0.00;0.00;;;27.40;54.90;;;;;;5057660;28;20024;-72
2022/09/12 12:05:30;;;;;;;0.00;0.00;;;27.70;54.20;;;;;;5057613;28;20408;-73
2022/09/12 12:08:01;;;;;;;0.00;0.00;;;28.10;54.10;;;;;;5064807;28;20426;-72
2022/09/12 12:10:38;;;;;;;0.00;0.00;;;27.70;52.70;;;;;;5082409;28;20042;-73
2022/09/12 12:13:19;;;;;;;0.00;0.00;;;27.50;53.90;;;;;;5082865;28;20059;-73
2022/09/12 12:15:59;;;;;;;0.52;0.52;;;26.90;54.60;;;;;;5028711;28;20020;-72
2022/09/12 12:18:30;;;;;;;0.00;0.00;;;26.70;54.10;;;;;;5080777;28;20115;-73
2022/09/12 12:21:19;;;;;;;0.00;0.00;;;26.30;54.50;;;;;;5079938;28;20526;-72
2022/09/12 12:24:06;;;;;;;0.00;0.00;;;26.50;54.30;;;;;;5078898;28;20089;-73
2022/09/12 12:26:53;;;;;;;0.00;0.00;;;26.80;54.80;;;;;;5082722;28;20027;-72
2022/09/12 12:29:18;;;;;;;0.00;0.00;;;26.60;55.30;;;;;;5080162;28;20040;-72
2022/09/12 12:32:06;;;;;;;0.00;0.00;;;25.90;55.70;;;;;;5080109;28;20024;-72
2022/09/12 12:34:42;;;;;;;0.00;0.00;;;25.70;56.20;;;;;;5046356;28;20066;-72
2022/09/12 12:37:20;;;;;;;0.08;0.08;;;25.90;56.70;;;;;;5075420;28;20082;-72
2022/09/12 12:39:49;;;;;;;0.00;0.00;;;26.10;56.60;;;;;;5055358;28;20016;-72
2022/09/12 12:42:33;;;;;;;0.10;0.10;;;26.10;55.70;;;;;;5074211;28;20103;-72
2022/09/12 12:45:05;;;;;;;0.20;0.20;;;25.60;57.70;;;;;;5056634;28;20024;-73
2022/09/12 12:47:37;;;;;;;0.00;0.00;;;25.10;57.40;;;;;;5074535;28;20110;-72
2022/09/12 12:50:09;;;;;;;0.00;0.00;;;24.90;57.40;;;;;;5079110;28;20073;-72
2022/09/12 12:52:48;;;;;;;0.75;0.52;;;25.20;57.20;;;;;;5046949;28;20039;-72
2022/09/12 12:55:21;;;;;;;0.00;0.00;;;25.30;56.50;;;;;;5048415;28;20017;-72
2022/09/12 12:57:58;;;;;;;0.00;0.00;;;25.10;57.00;;;;;;5083437;28;20025;-72
2022/09/12 13:00:24;;;;;;;0.00;0.00;;;25.10;58.00;;;;;;5072925;28;20020;-72
2022/09/12 13:03:05;;;;;;;0.00;0.00;;;24.90;55.80;;;;;;5079248;28;20080;-72
2022/09/12 13:06:02;;;;;;;0.00;0.00;;;24.90;57.30;;;;;;5083190;28;20019;-72
2022/09/12 13:08:32;;;;;;;0.00;0.00;;;25.00;57.90;;;;;;5031212;28;20032;-72
2022/09/12 13:11:04;;;;;;;0.00;0.00;;;24.90;57.60;;;;;;5084133;28;20024;-72
2022/09/12 13:13:59;;;;;;;0.70;0.30;;;24.50;58.90;;;;;;5077778;28;20020;-72
2022/09/12 13:16:50;;;;;;;0.00;0.00;;;24.40;56.70;;;;;;5007980;28;20064;-73
2022/09/12 13:19:19;;;;;;;;;;;24.10;57.40;;;;;;5053744;28;20229;-71
2022/09/12 13:21:55;;;;;;;0.00;0.00;;;24.00;57.10;;;;;;5080575;28;19904;-72
2022/09/12 13:24:22;;;;;;;0.00;0.00;;;23.90;57.70;;;;;;5073301;28;20092;-72